createdAt,value
2017-04-20T00:00:10.836Z,15.42
2017-04-20T00:01:08.732Z,13.88
2017-04-20T00:02:06.608Z,14.05
2017-04-20T00:03:04.582Z,14.98
2017-04-20T00:04:02.467Z,13.77
2017-04-20T00:05:00.332Z,13.57
2017-04-20T00:05:58.188Z,13.40
2017-04-20T00:06:56.079Z,13.40
2017-04-20T00:07:53.933Z,14.35
2017-04-20T00:08:51.847Z,12.88
2017-04-20T00:09:49.698Z,15.00
2017-04-20T00:10:47.553Z,15.45
2017-04-20T00:11:45.459Z,15.82
2017-04-20T00:12:43.340Z,16.10
2017-04-20T00:13:41.225Z,15.47
2017-04-20T00:14:39.299Z,15.97
2017-04-20T00:15:37.164Z,15.23
2017-04-20T00:16:35.054Z,17.25
2017-04-20T00:17:33.162Z,14.98
2017-04-20T00:18:31.137Z,13.00
2017-04-20T00:19:29.027Z,14.43
2017-04-20T00:20:26.871Z,14.22
2017-04-20T00:21:24.751Z,13.67
2017-04-20T00:22:22.639Z,14.55
2017-04-20T00:23:20.518Z,13.32
2017-04-20T00:24:18.456Z,13.72
2017-04-20T00:25:16.308Z,13.23
2017-04-20T00:26:14.210Z,13.52
2017-04-20T00:27:12.113Z,13.97
2017-04-20T00:28:09.990Z,15.02
2017-04-20T00:29:08.167Z,13.60
2017-04-20T00:30:06.026Z,17.05
2017-04-20T00:31:03.917Z,13.92
2017-04-20T00:32:02.140Z,15.68
2017-04-20T00:33:00.077Z,13.38
2017-04-20T00:33:57.956Z,14.62
2017-04-20T00:34:55.869Z,13.33
2017-04-20T00:35:53.699Z,13.63
2017-04-20T00:36:51.608Z,14.73
2017-04-20T00:37:49.600Z,12.77
2017-04-20T00:38:47.460Z,14.23
2017-04-20T00:39:45.359Z,14.40
2017-04-20T00:40:43.233Z,15.25
2017-04-20T00:41:41.066Z,14.32
2017-04-20T00:42:38.921Z,12.60
2017-04-20T00:43:36.762Z,15.83
2017-04-20T00:44:34.640Z,14.28
2017-04-20T00:45:32.511Z,13.13
2017-04-20T00:46:30.336Z,14.52
2017-04-20T00:47:28.236Z,14.08
2017-04-20T00:48:26.076Z,14.87
2017-04-20T00:49:23.998Z,14.38
2017-04-20T00:50:21.875Z,15.45
2017-04-20T00:51:19.724Z,14.10
2017-04-20T00:52:17.637Z,14.67
2017-04-20T00:53:15.527Z,16.02
2017-04-20T00:54:13.347Z,13.25
2017-04-20T00:55:11.209Z,12.28
2017-04-20T00:56:09.222Z,12.83
2017-04-20T00:57:07.063Z,13.97
2017-04-20T00:58:04.891Z,13.65
2017-04-20T00:59:02.731Z,14.10
2017-04-20T01:00:00.627Z,14.37
2017-04-20T01:00:58.599Z,16.23
2017-04-20T01:01:56.679Z,12.47
2017-04-20T01:02:54.542Z,13.07
2017-04-20T01:03:52.432Z,14.68
2017-04-20T01:04:50.251Z,16.58
2017-04-20T01:05:48.099Z,14.58
2017-04-20T01:06:46.051Z,14.23
2017-04-20T01:07:43.923Z,13.43
2017-04-20T01:08:41.826Z,12.77
2017-04-20T01:09:39.691Z,12.77
2017-04-20T01:10:37.504Z,13.08
2017-04-20T01:11:35.306Z,12.10
2017-04-20T01:12:34.429Z,12.38
2017-04-20T01:13:32.255Z,14.17
2017-04-20T01:14:30.328Z,15.07
2017-04-20T01:15:28.272Z,15.63
2017-04-20T01:16:26.169Z,13.90
2017-04-20T01:17:24.032Z,15.38
2017-04-20T01:18:21.924Z,16.37
2017-04-20T01:19:19.812Z,15.03
2017-04-20T01:20:17.699Z,17.37
2017-04-20T01:21:15.510Z,15.12
2017-04-20T01:22:13.407Z,15.32
2017-04-20T01:23:11.287Z,14.43
2017-04-20T01:24:09.143Z,14.88
2017-04-20T01:25:06.971Z,15.00
2017-04-20T01:26:04.859Z,14.23
2017-04-20T01:27:02.718Z,15.98
2017-04-20T01:28:00.611Z,14.03
2017-04-20T01:28:58.532Z,14.35
2017-04-20T01:29:56.413Z,15.73
2017-04-20T01:30:54.327Z,12.77
2017-04-20T01:31:52.180Z,15.78
2017-04-20T01:32:50.376Z,18.50
2017-04-20T01:33:48.225Z,14.90
2017-04-20T01:34:46.232Z,14.92
2017-04-20T01:35:44.251Z,15.83
2017-04-20T01:36:42.150Z,16.25
2017-04-20T01:37:40.048Z,13.82
2017-04-20T01:38:37.838Z,13.93
2017-04-20T01:39:35.810Z,16.50
2017-04-20T01:40:33.652Z,14.18
2017-04-20T01:41:31.640Z,12.48
2017-04-20T01:42:29.544Z,14.60
2017-04-20T01:43:27.416Z,13.78
2017-04-20T01:44:25.319Z,14.52
2017-04-20T01:45:23.142Z,15.10
2017-04-20T01:46:20.983Z,15.88
2017-04-20T01:47:18.833Z,14.08
2017-04-20T01:48:16.752Z,14.95
2017-04-20T01:49:14.666Z,14.10
2017-04-20T01:50:12.547Z,13.92
2017-04-20T01:51:10.443Z,14.88
2017-04-20T01:52:08.429Z,12.18
2017-04-20T01:53:06.335Z,13.77
2017-04-20T01:54:04.209Z,13.50
2017-04-20T01:55:02.056Z,13.20
2017-04-20T01:55:59.997Z,14.63
2017-04-20T01:56:57.836Z,13.23
2017-04-20T01:57:55.724Z,15.47
2017-04-20T01:58:53.563Z,12.38
2017-04-20T01:59:51.425Z,12.62
2017-04-20T02:00:49.884Z,12.98
2017-04-20T02:01:47.767Z,13.82
2017-04-20T02:02:45.650Z,14.45
2017-04-20T02:03:43.511Z,16.47
2017-04-20T02:04:41.348Z,14.83
2017-04-20T02:05:39.296Z,13.52
2017-04-20T02:06:37.316Z,16.85
2017-04-20T02:07:35.174Z,15.30
2017-04-20T02:08:33.068Z,14.97
2017-04-20T02:09:31.252Z,12.42
2017-04-20T02:10:29.109Z,13.18
2017-04-20T02:11:26.947Z,12.62
2017-04-20T02:12:24.787Z,12.77
2017-04-20T02:13:22.719Z,13.58
2017-04-20T02:14:20.693Z,13.52
2017-04-20T02:15:18.549Z,13.73
2017-04-20T02:16:16.416Z,16.17
2017-04-20T02:17:14.319Z,13.93
2017-04-20T02:18:12.189Z,14.28
2017-04-20T02:19:10.041Z,13.87
2017-04-20T02:20:10.138Z,15.12
2017-04-20T02:21:07.978Z,18.80
2017-04-20T02:22:05.852Z,15.18
2017-04-20T02:23:03.698Z,14.37
2017-04-20T02:24:01.554Z,15.47
2017-04-20T02:24:59.420Z,16.58
2017-04-20T02:25:57.287Z,14.50
2017-04-20T02:26:55.232Z,16.58
2017-04-20T02:27:53.137Z,15.28
2017-04-20T02:28:51.028Z,15.72
2017-04-20T02:29:48.872Z,14.87
2017-04-20T02:30:46.712Z,15.62
2017-04-20T02:31:44.633Z,15.35
2017-04-20T02:32:42.533Z,15.30
2017-04-20T02:33:40.432Z,17.70
2017-04-20T02:34:38.314Z,14.75
2017-04-20T02:35:36.164Z,13.92
2017-04-20T02:36:34.049Z,14.85
2017-04-20T02:37:31.929Z,13.60
2017-04-20T02:38:29.808Z,14.67
2017-04-20T02:39:27.697Z,16.77
2017-04-20T02:40:25.519Z,13.12
2017-04-20T02:41:23.445Z,13.38
2017-04-20T02:42:21.271Z,14.75
2017-04-20T02:43:19.141Z,14.85
2017-04-20T02:44:16.967Z,13.47
2017-04-20T02:45:14.828Z,14.82
2017-04-20T02:46:12.788Z,14.38
2017-04-20T02:47:10.660Z,14.38
2017-04-20T02:48:08.533Z,13.58
2017-04-20T02:49:06.391Z,14.47
2017-04-20T02:50:04.294Z,13.75
2017-04-20T02:51:02.150Z,20.32
2017-04-20T02:51:59.997Z,13.13
2017-04-20T02:52:57.951Z,15.02
2017-04-20T02:53:56.083Z,17.50
2017-04-20T02:54:53.956Z,14.05
2017-04-20T02:55:51.818Z,15.07
2017-04-20T02:56:49.691Z,14.85
2017-04-20T02:57:47.545Z,13.65
2017-04-20T02:58:45.389Z,18.23
2017-04-20T02:59:43.300Z,15.77
2017-04-20T03:00:41.156Z,17.10
2017-04-20T03:01:39.016Z,20.30
2017-04-20T03:02:36.887Z,16.35
2017-04-20T03:03:34.824Z,17.17
2017-04-20T03:04:32.754Z,14.85
2017-04-20T03:05:30.585Z,16.50
2017-04-20T03:06:28.451Z,17.75
2017-04-20T03:07:26.310Z,15.27
2017-04-20T03:08:24.159Z,15.90
2017-04-20T03:09:22.052Z,17.95
2017-04-20T03:10:19.889Z,16.78
2017-04-20T03:11:17.774Z,15.42
2017-04-20T03:12:15.680Z,15.17
2017-04-20T03:13:13.558Z,17.92
2017-04-20T03:14:11.449Z,16.85
2017-04-20T03:15:09.332Z,16.80
2017-04-20T03:16:07.227Z,15.42
2017-04-20T03:17:05.058Z,15.52
2017-04-20T03:18:02.971Z,14.60
2017-04-20T03:19:00.851Z,15.60
2017-04-20T03:19:58.720Z,16.72
2017-04-20T03:20:56.609Z,15.57
2017-04-20T03:21:54.478Z,14.12
2017-04-20T03:22:52.337Z,16.83
2017-04-20T03:23:50.203Z,15.02
2017-04-20T03:24:48.092Z,13.98
2017-04-20T03:25:45.950Z,14.02
2017-04-20T03:26:43.896Z,18.95
2017-04-20T03:27:41.716Z,17.50
2017-04-20T03:28:39.619Z,19.05
2017-04-20T03:29:37.484Z,16.45
2017-04-20T03:30:35.344Z,16.37
2017-04-20T03:31:33.227Z,16.28
2017-04-20T03:32:31.063Z,16.62
2017-04-20T03:33:29.099Z,16.88
2017-04-20T03:34:26.974Z,17.70
2017-04-20T03:35:24.978Z,20.55
2017-04-20T03:36:22.880Z,18.12
2017-04-20T03:37:20.748Z,19.37
2017-04-20T03:38:18.599Z,16.98
2017-04-20T03:39:16.524Z,16.87
2017-04-20T03:40:14.400Z,20.95
2017-04-20T03:41:12.255Z,18.63
2017-04-20T03:42:10.109Z,15.23
2017-04-20T03:43:07.971Z,17.28
2017-04-20T03:44:05.984Z,19.63
2017-04-20T03:45:03.917Z,15.30
2017-04-20T03:46:01.747Z,15.47
2017-04-20T03:46:59.620Z,21.32
2017-04-20T03:47:57.523Z,18.70
2017-04-20T03:48:55.370Z,18.48
2017-04-20T03:49:53.201Z,17.90
2017-04-20T03:50:51.072Z,21.23
2017-04-20T03:51:48.895Z,16.43
2017-04-20T03:52:46.732Z,15.95
2017-04-20T03:53:44.573Z,16.57
2017-04-20T03:54:42.423Z,15.98
2017-04-20T03:55:40.256Z,18.82
2017-04-20T03:56:38.148Z,17.58
2017-04-20T03:57:36.065Z,18.57
2017-04-20T03:58:33.908Z,16.05
2017-04-20T03:59:31.797Z,18.57
2017-04-20T04:00:29.720Z,16.02
2017-04-20T04:01:27.616Z,17.72
2017-04-20T04:02:25.492Z,18.03
2017-04-20T04:03:23.373Z,15.90
2017-04-20T04:04:21.236Z,17.43
2017-04-20T04:05:19.200Z,15.78
2017-04-20T04:06:17.702Z,18.25
2017-04-20T04:07:15.615Z,16.93
2017-04-20T04:08:13.460Z,15.55
2017-04-20T04:09:11.333Z,16.50
2017-04-20T04:10:09.296Z,17.72
2017-04-20T04:11:07.172Z,18.42
2017-04-20T04:12:05.034Z,18.35
2017-04-20T04:13:02.923Z,18.27
2017-04-20T04:14:00.763Z,23.23
2017-04-20T04:14:58.604Z,18.87
2017-04-20T04:15:56.428Z,19.02
2017-04-20T04:16:54.291Z,17.10
2017-04-20T04:17:52.192Z,19.35
2017-04-20T04:18:50.087Z,18.45
2017-04-20T04:19:47.975Z,19.82
2017-04-20T04:20:45.800Z,19.30
2017-04-20T04:21:43.680Z,17.80
2017-04-20T04:22:41.547Z,18.00
2017-04-20T04:23:39.358Z,17.82
2017-04-20T04:24:37.215Z,16.40
2017-04-20T04:25:35.105Z,15.45
2017-04-20T04:26:32.987Z,15.68
2017-04-20T04:27:31.208Z,18.12
2017-04-20T04:28:29.062Z,16.82
2017-04-20T04:29:26.893Z,18.53
2017-04-20T04:30:24.749Z,16.10
2017-04-20T04:31:22.641Z,17.82
2017-04-20T04:32:20.484Z,16.05
2017-04-20T04:33:18.329Z,14.38
2017-04-20T04:34:16.219Z,18.22
2017-04-20T04:35:14.044Z,16.30
2017-04-20T04:36:11.872Z,18.40
2017-04-20T04:37:09.745Z,17.40
2017-04-20T04:38:07.600Z,15.25
2017-04-20T04:39:05.690Z,16.62
2017-04-20T04:40:03.665Z,16.25
2017-04-20T04:41:01.524Z,19.28
2017-04-20T04:41:59.355Z,18.05
2017-04-20T04:42:57.224Z,15.63
2017-04-20T04:43:55.124Z,18.67
2017-04-20T04:44:53.004Z,15.30
2017-04-20T04:45:50.920Z,19.92
2017-04-20T04:46:48.788Z,16.22
2017-04-20T04:47:46.696Z,15.88
2017-04-20T04:48:44.552Z,18.58
2017-04-20T04:49:42.456Z,15.87
2017-04-20T04:50:40.363Z,18.07
2017-04-20T04:51:38.248Z,18.45
2017-04-20T04:52:36.139Z,16.18
2017-04-20T04:53:33.988Z,17.08
2017-04-20T04:54:31.867Z,18.07
2017-04-20T04:55:29.747Z,16.92
2017-04-20T04:56:27.595Z,14.42
2017-04-20T04:57:25.436Z,15.33
2017-04-20T04:58:23.280Z,15.12
2017-04-20T04:59:21.127Z,15.65
2017-04-20T05:00:19.009Z,18.47
2017-04-20T05:01:16.853Z,14.27
2017-04-20T05:02:14.709Z,15.92
2017-04-20T05:03:12.594Z,19.65
2017-04-20T05:04:10.459Z,15.90
2017-04-20T05:05:08.313Z,18.35
2017-04-20T05:06:06.176Z,17.75
2017-04-20T05:07:04.060Z,18.20
2017-04-20T05:08:01.891Z,16.35
2017-04-20T05:08:59.765Z,17.82
2017-04-20T05:09:57.598Z,18.28
2017-04-20T05:10:55.505Z,17.42
2017-04-20T05:11:53.333Z,17.18
2017-04-20T05:12:51.235Z,17.77
2017-04-20T05:13:49.111Z,16.82
2017-04-20T05:14:46.984Z,19.10
2017-04-20T05:15:44.869Z,17.62
2017-04-20T05:16:42.683Z,18.47
2017-04-20T05:17:40.609Z,21.22
2017-04-20T05:18:38.497Z,17.73
2017-04-20T05:19:36.381Z,19.02
2017-04-20T05:20:34.222Z,19.35
2017-04-20T05:21:32.243Z,23.78
2017-04-20T05:22:30.087Z,18.43
2017-04-20T05:23:27.916Z,20.15
2017-04-20T05:24:25.824Z,18.08
2017-04-20T05:25:23.690Z,18.58
2017-04-20T05:26:21.588Z,16.57
2017-04-20T05:27:19.455Z,21.25
2017-04-20T05:28:17.475Z,19.97
2017-04-20T05:29:15.295Z,14.97
2017-04-20T05:30:13.172Z,16.15
2017-04-20T05:31:11.028Z,18.23
2017-04-20T05:32:08.879Z,18.85
2017-04-20T05:33:06.782Z,17.17
2017-04-20T05:34:04.668Z,16.63
2017-04-20T05:35:02.588Z,20.78
2017-04-20T05:36:00.427Z,17.42
2017-04-20T05:36:58.279Z,20.45
2017-04-20T05:37:56.240Z,25.33
2017-04-20T05:38:54.422Z,20.02
2017-04-20T05:39:52.240Z,20.60
2017-04-20T05:40:50.125Z,21.83
2017-04-20T05:41:47.967Z,18.75
2017-04-20T05:42:45.802Z,18.25
2017-04-20T05:43:43.612Z,17.83
2017-04-20T05:44:41.464Z,18.12
2017-04-20T05:45:39.301Z,19.70
2017-04-20T05:46:37.143Z,18.93
2017-04-20T05:47:34.979Z,19.08
2017-04-20T05:48:32.856Z,18.88
2017-04-20T05:49:30.735Z,18.52
2017-04-20T05:50:28.603Z,20.87
2017-04-20T05:51:26.450Z,20.63
2017-04-20T05:52:24.313Z,17.38
2017-04-20T05:53:22.182Z,20.95
2017-04-20T05:54:20.019Z,20.82
2017-04-20T05:55:17.857Z,20.17
2017-04-20T05:56:15.715Z,22.00
2017-04-20T05:57:13.645Z,18.55
2017-04-20T05:58:11.576Z,17.75
2017-04-20T05:59:09.411Z,18.08
2017-04-20T06:00:07.409Z,18.30
2017-04-20T06:01:05.259Z,20.75
2017-04-20T06:02:03.105Z,20.93
2017-04-20T06:03:00.937Z,17.78
2017-04-20T06:03:58.790Z,23.70
2017-04-20T06:04:56.644Z,20.78
2017-04-20T06:05:54.886Z,19.78
2017-04-20T06:06:52.761Z,21.88
2017-04-20T06:07:50.663Z,20.77
2017-04-20T06:08:48.527Z,18.47
2017-04-20T06:09:46.358Z,18.22
2017-04-20T06:10:44.167Z,21.28
2017-04-20T06:11:41.997Z,21.03
2017-04-20T06:12:39.823Z,18.83
2017-04-20T06:13:37.663Z,17.33
2017-04-20T06:14:35.527Z,15.87
2017-04-20T06:15:33.427Z,20.38
2017-04-20T06:16:31.420Z,20.27
2017-04-20T06:17:29.288Z,17.47
2017-04-20T06:18:27.134Z,18.57
2017-04-20T06:19:25.007Z,21.37
2017-04-20T06:20:22.856Z,19.63
2017-04-20T06:21:20.743Z,19.35
2017-04-20T06:22:18.623Z,19.80
2017-04-20T06:23:16.841Z,20.10
2017-04-20T06:24:14.680Z,20.17
2017-04-20T06:25:12.530Z,20.72
2017-04-20T06:26:10.351Z,19.93
2017-04-20T06:27:08.185Z,19.83
2017-04-20T06:28:06.025Z,21.07
2017-04-20T06:29:03.862Z,18.68
2017-04-20T06:30:01.692Z,19.15
2017-04-20T06:30:59.581Z,24.60
2017-04-20T06:31:57.450Z,19.52
2017-04-20T06:32:55.348Z,21.63
2017-04-20T06:33:53.287Z,19.42
2017-04-20T06:34:51.138Z,19.80
2017-04-20T06:35:49.015Z,19.37
2017-04-20T06:36:46.895Z,20.75
2017-04-20T06:37:44.767Z,18.95
2017-04-20T06:38:42.603Z,18.30
2017-04-20T06:39:40.512Z,19.48
2017-04-20T06:40:38.377Z,21.28
2017-04-20T06:41:36.248Z,22.05
2017-04-20T06:42:34.169Z,18.07
2017-04-20T06:43:32.116Z,18.27
2017-04-20T06:44:30.694Z,28.02
2017-04-20T06:45:28.535Z,20.35
2017-04-20T06:46:26.444Z,18.10
2017-04-20T06:47:24.279Z,18.17
2017-04-20T06:48:22.092Z,18.65
2017-04-20T06:49:20.055Z,23.30
2017-04-20T06:50:17.892Z,19.77
2017-04-20T06:51:15.871Z,18.00
2017-04-20T06:52:13.812Z,21.18
2017-04-20T06:53:11.632Z,20.93
2017-04-20T06:54:09.535Z,16.97
2017-04-20T06:55:07.428Z,18.48
2017-04-20T06:56:05.308Z,19.27
2017-04-20T06:57:03.168Z,24.88
2017-04-20T06:58:01.108Z,21.98
2017-04-20T06:58:58.946Z,19.13
2017-04-20T06:59:56.873Z,20.88
2017-04-20T07:00:54.804Z,20.17
2017-04-20T07:01:52.665Z,26.67
2017-04-20T07:02:56.563Z,20.75
2017-04-20T07:03:54.662Z,22.47
2017-04-20T07:04:52.540Z,20.97
2017-04-20T07:05:50.569Z,22.20
2017-04-20T07:06:48.871Z,21.42
2017-04-20T07:07:46.753Z,21.48
2017-04-20T07:08:44.636Z,21.35
2017-04-20T07:09:42.453Z,21.37
2017-04-20T07:10:40.301Z,22.50
2017-04-20T07:11:38.132Z,20.97
2017-04-20T07:12:35.996Z,19.65
2017-04-20T07:13:33.865Z,20.53
2017-04-20T07:14:31.916Z,20.05
2017-04-20T07:15:29.766Z,21.87
2017-04-20T07:16:27.637Z,18.88
2017-04-20T07:17:25.516Z,20.35
2017-04-20T07:18:23.323Z,21.02
2017-04-20T07:19:21.191Z,23.12
2017-04-20T07:20:19.089Z,19.97
2017-04-20T07:21:16.977Z,21.32
2017-04-20T07:22:14.844Z,22.05
2017-04-20T07:23:14.088Z,22.10
2017-04-20T07:24:11.941Z,22.92
2017-04-20T07:25:09.796Z,20.10
2017-04-20T07:26:07.623Z,23.60
2017-04-20T07:27:05.464Z,24.68
2017-04-20T07:28:03.359Z,25.40
2017-04-20T07:29:02.001Z,22.62
2017-04-20T07:29:59.861Z,16.28
2017-04-20T07:30:57.745Z,17.67
2017-04-20T07:31:55.566Z,17.87
2017-04-20T07:32:53.416Z,23.23
2017-04-20T07:33:51.277Z,22.32
2017-04-20T07:34:55.283Z,22.47
2017-04-20T07:36:00.752Z,19.87
2017-04-20T07:36:58.816Z,16.85
2017-04-20T07:37:56.761Z,18.20
2017-04-20T07:38:54.594Z,17.83
2017-04-20T07:39:52.486Z,19.42
2017-04-20T07:40:50.314Z,18.40
2017-04-20T07:41:48.213Z,15.66
2017-04-20T07:42:46.033Z,15.38
2017-04-20T07:43:43.885Z,14.77
2017-04-20T07:44:41.699Z,17.04
2017-04-20T07:45:39.518Z,16.70
2017-04-20T07:46:37.359Z,15.66
2017-04-20T07:47:35.206Z,14.10
2017-04-20T07:48:33.051Z,12.76
2017-04-20T07:49:30.875Z,13.91
2017-04-20T07:50:28.718Z,13.79
2017-04-20T07:51:26.686Z,16.56
2017-04-20T07:52:24.545Z,14.41
2017-04-20T07:53:22.363Z,16.39
2017-04-20T07:54:20.454Z,15.24
2017-04-20T07:55:18.340Z,14.79
2017-04-20T07:56:17.357Z,15.99
2017-04-20T07:57:15.434Z,17.89
2017-04-20T07:58:13.325Z,13.89
2017-04-20T07:59:12.327Z,14.46
2017-04-20T08:00:10.764Z,13.87
2017-04-20T08:01:08.716Z,14.37
2017-04-20T08:02:06.569Z,15.80
2017-04-20T08:03:04.515Z,12.96
2017-04-20T08:04:02.602Z,12.31
2017-04-20T08:05:00.496Z,13.17
2017-04-20T08:05:58.403Z,12.94
2017-04-20T08:06:56.302Z,12.21
2017-04-20T08:07:54.213Z,13.51
2017-04-20T08:08:52.098Z,12.50
2017-04-20T08:09:50.024Z,12.39
2017-04-20T08:10:47.878Z,12.73
2017-04-20T08:11:45.695Z,12.11
2017-04-20T08:12:43.515Z,13.47
2017-04-20T08:13:41.418Z,11.94
2017-04-20T08:14:39.272Z,13.67
2017-04-20T08:15:37.161Z,12.06
2017-04-20T08:16:35.039Z,13.96
2017-04-20T08:17:33.732Z,11.14
2017-04-20T08:18:31.620Z,10.17
2017-04-20T08:19:29.469Z,9.14
2017-04-20T08:20:27.368Z,9.71
2017-04-20T08:21:25.289Z,9.04
2017-04-20T08:22:23.182Z,8.74
2017-04-20T08:23:21.084Z,9.70
2017-04-20T08:24:18.908Z,8.90
2017-04-20T08:25:16.787Z,9.23
2017-04-20T08:26:14.633Z,9.40
2017-04-20T08:27:12.499Z,9.81
2017-04-20T08:28:10.371Z,9.09
2017-04-20T08:29:08.264Z,9.46
2017-04-20T08:30:06.140Z,10.97
2017-04-20T08:31:04.066Z,10.17
2017-04-20T08:32:01.973Z,11.39
2017-04-20T08:32:59.877Z,11.71
2017-04-20T08:33:57.729Z,10.60
2017-04-20T08:34:55.632Z,10.89
2017-04-20T08:35:53.516Z,11.03
2017-04-20T08:36:51.448Z,11.66
2017-04-20T08:37:49.299Z,12.20
2017-04-20T08:38:47.172Z,13.89
2017-04-20T08:39:45.042Z,12.31
2017-04-20T08:40:42.908Z,10.90
2017-04-20T08:41:40.824Z,11.94
2017-04-20T08:42:38.698Z,12.96
2017-04-20T08:43:36.599Z,11.29
2017-04-20T08:44:34.703Z,13.40
2017-04-20T08:45:32.752Z,11.50
2017-04-20T08:46:30.896Z,11.47
2017-04-20T08:47:28.769Z,11.87
2017-04-20T08:48:26.606Z,12.00
2017-04-20T08:49:24.460Z,11.97
2017-04-20T08:50:22.351Z,11.54
2017-04-20T08:51:20.222Z,12.90
2017-04-20T08:52:18.113Z,10.77
2017-04-20T08:53:16.045Z,11.69
2017-04-20T08:54:13.936Z,11.31
2017-04-20T08:55:11.842Z,10.17
2017-04-20T08:56:09.888Z,12.94
2017-04-20T08:57:07.804Z,12.11
2017-04-20T08:58:05.651Z,11.96
2017-04-20T08:59:03.580Z,12.51
2017-04-20T09:00:01.492Z,12.34
2017-04-20T09:00:59.352Z,9.86
2017-04-20T09:01:57.311Z,11.97
2017-04-20T09:02:55.204Z,17.21
2017-04-20T09:03:53.071Z,11.51
2017-04-20T09:04:50.939Z,11.99
2017-04-20T09:05:49.046Z,12.24
2017-04-20T09:06:47.070Z,11.99
2017-04-20T09:07:44.956Z,11.93
2017-04-20T09:08:42.808Z,12.30
2017-04-20T09:09:40.672Z,13.10
2017-04-20T09:10:39.576Z,13.63
2017-04-20T09:11:37.489Z,12.61
2017-04-20T09:12:35.427Z,13.10
2017-04-20T09:13:33.351Z,13.06
2017-04-20T09:14:31.284Z,12.60
2017-04-20T09:15:29.312Z,12.00
2017-04-20T09:16:27.438Z,14.09
2017-04-20T09:17:25.313Z,12.56
2017-04-20T09:18:23.230Z,13.67
2017-04-20T09:19:21.132Z,12.40
2017-04-20T09:20:19.072Z,12.60
2017-04-20T09:21:17.043Z,12.57
2017-04-20T09:22:14.947Z,12.74
2017-04-20T09:23:12.848Z,12.46
2017-04-20T09:24:10.785Z,13.04
2017-04-20T09:25:08.829Z,12.20
2017-04-20T09:26:06.724Z,12.87
2017-04-20T09:27:04.636Z,14.83
2017-04-20T09:28:02.555Z,13.04
2017-04-20T09:29:00.450Z,12.20
2017-04-20T09:29:58.369Z,13.27
2017-04-20T09:30:56.259Z,12.13
2017-04-20T09:31:54.124Z,12.51
2017-04-20T09:32:52.044Z,13.20
2017-04-20T09:33:49.895Z,12.94
2017-04-20T09:34:47.802Z,11.79
2017-04-20T09:35:45.667Z,13.17
2017-04-20T09:36:43.548Z,12.70
2017-04-20T09:37:41.439Z,12.89
2017-04-20T09:38:39.344Z,14.67
2017-04-20T09:39:37.208Z,13.40
2017-04-20T09:40:35.089Z,13.87
2017-04-20T09:41:32.982Z,13.69
2017-04-20T09:42:31.012Z,13.81
2017-04-20T09:43:29.244Z,15.26
2017-04-20T09:44:27.121Z,14.27
2017-04-20T09:45:25.035Z,14.70
2017-04-20T09:46:22.941Z,14.43
2017-04-20T09:47:20.869Z,13.96
2017-04-20T09:48:18.724Z,13.30
2017-04-20T09:49:16.816Z,14.03
2017-04-20T09:50:14.668Z,14.16
2017-04-20T09:51:12.582Z,14.89
2017-04-20T09:52:10.514Z,14.09
2017-04-20T09:53:08.435Z,14.17
2017-04-20T09:54:06.405Z,14.50
2017-04-20T09:55:04.436Z,13.13
2017-04-20T09:56:02.419Z,13.03
2017-04-20T09:57:00.309Z,15.73
2017-04-20T09:57:58.187Z,14.21
2017-04-20T09:58:56.076Z,12.66
2017-04-20T09:59:53.949Z,13.81
2017-04-20T10:00:51.857Z,13.57
2017-04-20T10:01:49.752Z,14.89
2017-04-20T10:02:47.652Z,14.94
2017-04-20T10:03:45.538Z,13.77
2017-04-20T10:04:43.400Z,13.97
2017-04-20T10:05:41.338Z,14.19
2017-04-20T10:06:39.232Z,14.64
2017-04-20T10:07:37.153Z,14.44
2017-04-20T10:08:35.044Z,15.21
2017-04-20T10:09:32.923Z,13.93
2017-04-20T10:10:30.801Z,15.43
2017-04-20T10:11:28.678Z,14.19
2017-04-20T10:12:26.555Z,14.17
2017-04-20T10:13:24.424Z,15.57
2017-04-20T10:14:22.324Z,15.24
2017-04-20T10:15:20.192Z,16.93
2017-04-20T10:16:18.058Z,14.20
2017-04-20T10:17:15.927Z,14.71
2017-04-20T10:18:13.817Z,15.40
2017-04-20T10:19:11.783Z,14.27
2017-04-20T10:20:09.624Z,15.01
2017-04-20T10:21:07.497Z,14.70
2017-04-20T10:22:05.312Z,15.90
2017-04-20T10:23:03.192Z,16.07
2017-04-20T10:24:01.074Z,15.23
2017-04-20T10:24:58.922Z,15.53
2017-04-20T10:25:56.779Z,16.17
2017-04-20T10:26:54.633Z,15.29
2017-04-20T10:27:52.479Z,14.59
2017-04-20T10:28:50.377Z,16.16
2017-04-20T10:29:48.254Z,16.44
2017-04-20T10:30:46.126Z,15.24
2017-04-20T10:31:44.004Z,15.29
2017-04-20T10:32:41.871Z,15.33
2017-04-20T10:33:39.758Z,16.09
2017-04-20T10:34:37.591Z,17.69
2017-04-20T10:35:35.421Z,15.11
2017-04-20T10:36:33.312Z,15.31
2017-04-20T10:37:31.212Z,15.03
2017-04-20T10:38:29.140Z,15.69
2017-04-20T10:39:26.997Z,14.51
2017-04-20T10:40:24.917Z,16.36
2017-04-20T10:41:22.810Z,16.03
2017-04-20T10:42:20.752Z,15.33
2017-04-20T10:43:19.228Z,15.50
2017-04-20T10:44:17.068Z,15.81
2017-04-20T10:45:14.992Z,17.00
2017-04-20T10:46:12.844Z,16.19
2017-04-20T10:47:10.680Z,16.09
2017-04-20T10:48:10.971Z,17.06
2017-04-20T10:49:08.832Z,16.36
2017-04-20T10:50:06.700Z,16.07
2017-04-20T10:51:05.372Z,15.76
2017-04-20T10:52:03.931Z,16.29
2017-04-20T10:53:01.865Z,15.81
2017-04-20T10:53:59.728Z,17.69
2017-04-20T10:54:57.559Z,17.27
2017-04-20T10:55:55.457Z,16.77
2017-04-20T10:56:53.385Z,15.31
2017-04-20T10:57:51.241Z,17.26
2017-04-20T10:58:49.083Z,17.27
2017-04-20T10:59:46.937Z,17.17
2017-04-20T11:00:44.824Z,16.99
2017-04-20T11:01:42.676Z,17.33
2017-04-20T11:02:40.519Z,16.91
2017-04-20T11:03:38.364Z,16.76
2017-04-20T11:04:36.271Z,16.63
2017-04-20T11:05:34.494Z,17.10
2017-04-20T11:06:32.457Z,17.99
2017-04-20T11:07:30.371Z,17.71
2017-04-20T11:08:28.373Z,16.84
2017-04-20T11:09:26.195Z,16.84
2017-04-20T11:10:24.111Z,16.97
2017-04-20T11:11:22.027Z,17.31
2017-04-20T11:12:19.861Z,16.29
2017-04-20T11:13:17.757Z,18.24
2017-04-20T11:14:15.636Z,17.56
2017-04-20T11:15:26.466Z,17.14
2017-04-20T11:16:38.580Z,17.84
2017-04-20T11:18:47.508Z,16.23
2017-04-20T11:19:45.356Z,15.44
2017-04-20T11:20:43.239Z,16.76
2017-04-20T11:21:41.096Z,18.06
2017-04-20T11:22:39.670Z,17.06
2017-04-20T11:23:37.565Z,17.36
2017-04-20T11:24:35.492Z,17.27
2017-04-20T11:25:33.393Z,18.41
2017-04-20T11:26:31.240Z,18.03
2017-04-20T11:27:29.581Z,17.84
2017-04-20T11:28:27.483Z,17.47
2017-04-20T11:29:25.320Z,16.44
2017-04-20T11:30:23.231Z,15.51
2017-04-20T11:31:21.114Z,17.40
2017-04-20T11:32:18.961Z,18.01
2017-04-20T11:33:16.833Z,18.53
2017-04-20T11:34:14.734Z,17.96
2017-04-20T11:35:12.638Z,18.33
2017-04-20T11:36:10.564Z,17.50
2017-04-20T11:37:08.466Z,17.89
2017-04-20T11:38:06.360Z,17.49
2017-04-20T11:39:04.444Z,18.91
2017-04-20T11:40:02.344Z,18.93
2017-04-20T11:41:00.240Z,17.36
2017-04-20T11:41:58.151Z,16.93
2017-04-20T11:42:56.020Z,16.51
2017-04-20T11:43:53.900Z,17.96
2017-04-20T11:44:52.075Z,17.51
2017-04-20T11:45:49.967Z,17.19
2017-04-20T11:46:47.844Z,17.57
2017-04-20T11:47:45.800Z,17.27
2017-04-20T11:48:43.645Z,16.83
2017-04-20T11:49:41.539Z,17.40
2017-04-20T11:50:39.472Z,16.19
2017-04-20T11:51:37.364Z,16.31
2017-04-20T11:52:35.197Z,16.60
2017-04-20T11:53:33.080Z,16.90
2017-04-20T11:54:31.037Z,15.46
2017-04-20T11:55:28.945Z,16.63
2017-04-20T11:56:26.818Z,16.46
2017-04-20T11:57:24.692Z,15.66
2017-04-20T11:58:22.569Z,15.41
2017-04-20T11:59:20.460Z,15.70
2017-04-20T12:00:18.368Z,15.16
2017-04-20T12:01:16.225Z,15.60
2017-04-20T12:02:14.073Z,16.76
2017-04-20T12:03:11.930Z,14.51
2017-04-20T12:04:10.084Z,14.99
2017-04-20T12:05:07.948Z,15.81
2017-04-20T12:06:05.827Z,15.97
2017-04-20T12:07:03.759Z,14.21
2017-04-20T12:08:01.725Z,15.13
2017-04-20T12:08:59.632Z,15.07
2017-04-20T12:09:57.663Z,14.29
2017-04-20T12:10:55.580Z,16.94
2017-04-20T12:11:53.520Z,15.21
2017-04-20T12:12:51.435Z,15.24
2017-04-20T12:13:49.316Z,14.31
2017-04-20T12:14:47.213Z,15.29
2017-04-20T12:15:45.120Z,15.04
2017-04-20T12:16:43.020Z,13.61
2017-04-20T12:17:40.923Z,14.87
2017-04-20T12:18:38.769Z,13.79
2017-04-20T12:19:36.797Z,14.09
2017-04-20T12:20:35.109Z,14.21
2017-04-20T12:21:33.017Z,13.74
2017-04-20T12:22:30.967Z,13.34
2017-04-20T12:23:28.918Z,13.34
2017-04-20T12:24:26.890Z,13.00
2017-04-20T12:25:24.780Z,14.91
2017-04-20T12:26:22.700Z,14.20
2017-04-20T12:27:20.636Z,14.47
2017-04-20T12:28:18.545Z,14.77